Time;durP1;ratioP1;P1;durP2;ratioP2;P2;SDS_P1;SDS_P2;PMS_P1;PMS_P2;Temp;Humidity;BMP_temperature;BMP_pressure;BME280_temperature;BME280_humidity;BME280_pressure;Samples;Min_cycle;Max_cycle;Signal;HPM_P1;HPM_P2
2021/06/20 00:02:23;;;;;;;15.20;14.00;;;;;;;;;;5098454;28;20035;-56
2021/06/20 00:04:48;;;;;;;16.15;14.85;;;;;;;;;;5104395;28;20265;-56
2021/06/20 00:07:13;;;;;;;15.45;14.15;;;;;;;;;;5112181;28;20043;-57
2021/06/20 00:09:38;;;;;;;16.13;14.83;;;;;;;;;;5107664;28;20475;-56
2021/06/20 00:12:04;;;;;;;15.23;13.93;;;;;;;;;;5100101;28;20348;-57
2021/06/20 00:14:29;;;;;;;15.10;13.70;;;;;;;;;;5107274;28;20102;-56
2021/06/20 00:16:54;;;;;;;15.75;14.55;;;;;;;;;;5102904;28;20459;-56
2021/06/20 00:19:19;;;;;;;15.20;14.00;;;;;;;;;;5112726;28;20482;-56
2021/06/20 00:21:45;;;;;;;15.23;13.83;;;;;;;;;;5100956;28;20287;-56
2021/06/20 00:24:10;;;;;;;15.15;13.95;;;;;;;;;;5111507;28;20281;-57
2021/06/20 00:26:35;;;;;;;14.60;13.45;;;;;;;;;;5111515;28;20023;-55
2021/06/20 00:29:00;;;;;;;14.15;12.93;;;;;;;;;;5092571;28;20434;-57
2021/06/20 00:31:26;;;;;;;14.52;13.30;;;;;;;;;;5105287;28;20257;-55
2021/06/20 00:33:51;;;;;;;14.50;13.27;;;;;;;;;;5099667;28;20030;-57
2021/06/20 00:36:16;;;;;;;14.40;13.30;;;;;;;;;;5104820;28;20268;-56
2021/06/20 00:38:41;;;;;;;14.23;13.10;;;;;;;;;;5104125;28;20012;-56
2021/06/20 00:41:07;;;;;;;14.97;13.57;;;;;;;;;;5099981;28;20648;-56
2021/06/20 00:43:32;;;;;;;16.15;14.63;;;;;;;;;;5108557;28;20264;-55
2021/06/20 00:45:58;;;;;;;16.02;14.82;;;;;;;;;;5098916;28;20418;-56
2021/06/20 00:48:23;;;;;;;16.02;14.65;;;;;;;;;;5092920;28;20065;-57
2021/06/20 00:50:48;;;;;;;15.05;13.75;;;;;;;;;;5102476;28;20012;-57
2021/06/20 00:53:13;;;;;;;15.40;13.98;;;;;;;;;;5109213;28;20062;-57
2021/06/20 00:55:39;;;;;;;15.07;13.88;;;;;;;;;;5106407;28;20027;-57
2021/06/20 00:58:05;;;;;;;14.20;13.10;;;;;;;;;;5117060;28;20443;-58
2021/06/20 01:00:31;;;;;;;14.45;13.20;;;;;;;;;;5107863;28;20231;-57
2021/06/20 01:02:56;;;;;;;14.88;13.70;;;;;;;;;;5102468;28;20020;-57
2021/06/20 01:05:22;;;;;;;13.77;12.68;;;;;;;;;;5103775;28;20107;-58
2021/06/20 01:07:51;;;;;;;14.48;13.35;;;;;;;;;;5106715;28;20027;-57
2021/06/20 01:10:16;;;;;;;13.68;12.57;;;;;;;;;;5113573;28;20051;-56
2021/06/20 01:12:42;;;;;;;13.60;12.50;;;;;;;;;;5111778;28;20015;-57
2021/06/20 01:15:07;;;;;;;13.80;12.63;;;;;;;;;;5116105;28;20016;-57
2021/06/20 01:17:33;;;;;;;13.38;12.27;;;;;;;;;;5104472;28;20027;-56
2021/06/20 01:19:58;;;;;;;12.23;11.27;;;;;;;;;;5115629;28;20020;-57
2021/06/20 01:22:23;;;;;;;13.05;11.85;;;;;;;;;;5095256;28;20035;-57
2021/06/20 01:24:53;;;;;;;13.32;12.18;;;;;;;;;;5111799;28;20486;-56
2021/06/20 01:27:19;;;;;;;12.82;11.82;;;;;;;;;;5115080;28;20417;-57
2021/06/20 01:29:48;;;;;;;12.82;11.65;;;;;;;;;;5096370;28;20020;-58
2021/06/20 01:32:17;;;;;;;12.38;11.25;;;;;;;;;;5110309;28;20020;-57
2021/06/20 01:34:46;;;;;;;12.43;11.43;;;;;;;;;;5112038;28;20374;-57
2021/06/20 01:37:11;;;;;;;12.40;11.50;;;;;;;;;;5115285;28;20011;-56
2021/06/20 01:39:37;;;;;;;12.90;11.80;;;;;;;;;;5115791;28;20022;-56
2021/06/20 01:42:02;;;;;;;12.68;11.45;;;;;;;;;;5106404;28;20022;-56
2021/06/20 01:44:28;;;;;;;13.30;12.15;;;;;;;;;;5095386;28;20024;-58
2021/06/20 01:46:53;;;;;;;12.30;11.20;;;;;;;;;;5112551;28;20031;-58
2021/06/20 01:49:18;;;;;;;13.02;11.75;;;;;;;;;;5098904;28;20016;-57
2021/06/20 01:51:44;;;;;;;13.10;11.93;;;;;;;;;;5105477;28;20024;-57
2021/06/20 01:54:09;;;;;;;13.00;11.88;;;;;;;;;;5095742;28;20040;-56
2021/06/20 01:56:34;;;;;;;12.38;11.27;;;;;;;;;;5115553;28;20012;-57
2021/06/20 01:59:00;;;;;;;12.68;11.65;;;;;;;;;;5110458;28;20061;-57
2021/06/20 02:01:25;;;;;;;12.70;11.60;;;;;;;;;;5099765;28;20036;-56
2021/06/20 02:03:50;;;;;;;13.27;12.18;;;;;;;;;;5107395;28;20076;-56
2021/06/20 02:06:15;;;;;;;12.90;11.80;;;;;;;;;;5100573;28;20024;-57
2021/06/20 02:08:40;;;;;;;12.75;11.75;;;;;;;;;;5108237;28;20030;-56
2021/06/20 02:11:06;;;;;;;14.15;12.95;;;;;;;;;;5103180;28;20016;-57
2021/06/20 02:13:31;;;;;;;13.32;12.32;;;;;;;;;;5109841;28;20028;-56
2021/06/20 02:15:56;;;;;;;14.02;12.93;;;;;;;;;;5107062;28;20435;-58
2021/06/20 02:18:22;;;;;;;12.77;11.88;;;;;;;;;;5108476;28;20020;-56
2021/06/20 02:20:47;;;;;;;13.30;12.25;;;;;;;;;;5109067;28;20498;-57
2021/06/20 02:23:13;;;;;;;13.38;12.23;;;;;;;;;;5094727;28;20092;-57
2021/06/20 02:25:38;;;;;;;13.10;12.10;;;;;;;;;;5094761;28;20107;-56
2021/06/20 02:28:04;;;;;;;12.70;11.68;;;;;;;;;;5095445;28;20020;-58
2021/06/20 02:30:29;;;;;;;13.38;12.27;;;;;;;;;;5108875;28;20059;-57
2021/06/20 02:32:54;;;;;;;14.23;12.93;;;;;;;;;;5113252;28;20031;-57
2021/06/20 02:35:20;;;;;;;12.90;11.90;;;;;;;;;;5114594;28;20032;-58
2021/06/20 02:37:47;;;;;;;12.45;11.45;;;;;;;;;;5109950;27;20016;-57
2021/06/20 02:40:13;;;;;;;13.40;12.27;;;;;;;;;;5100528;28;20424;-57
2021/06/20 02:42:39;;;;;;;12.68;11.68;;;;;;;;;;5101310;28;20024;-57
2021/06/20 02:45:05;;;;;;;11.40;10.48;;;;;;;;;;5112365;28;20018;-57
2021/06/20 02:47:30;;;;;;;11.73;10.82;;;;;;;;;;5104058;28;20074;-57
2021/06/20 02:49:56;;;;;;;11.60;10.55;;;;;;;;;;5096795;28;20029;-57
2021/06/20 02:52:21;;;;;;;11.88;10.82;;;;;;;;;;5109756;28;20111;-56
2021/06/20 02:54:49;;;;;;;11.98;10.98;;;;;;;;;;5105054;28;20387;-58
2021/06/20 02:57:16;;;;;;;11.43;10.43;;;;;;;;;;5094947;28;20390;-57
2021/06/20 02:59:41;;;;;;;11.80;10.18;;;;;;;;;;5109770;28;20076;-57
2021/06/20 03:02:06;;;;;;;10.85;9.85;;;;;;;;;;5108803;28;20039;-57
2021/06/20 03:04:31;;;;;;;12.20;9.88;;;;;;;;;;5114428;28;20016;-57
2021/06/20 03:06:56;;;;;;;11.17;10.20;;;;;;;;;;5114333;28;20134;-55
2021/06/20 03:09:22;;;;;;;10.88;9.90;;;;;;;;;;5096318;28;20270;-55
2021/06/20 03:11:47;;;;;;;10.90;10.10;;;;;;;;;;5097057;28;20424;-58
2021/06/20 03:14:14;;;;;;;10.77;9.77;;;;;;;;;;5112946;28;20798;-56
2021/06/20 03:16:39;;;;;;;10.88;9.98;;;;;;;;;;5107999;28;20024;-57
2021/06/20 03:19:05;;;;;;;11.73;10.65;;;;;;;;;;5113605;28;20516;-57
2021/06/20 03:21:30;;;;;;;11.65;10.52;;;;;;;;;;5103837;28;20012;-57
2021/06/20 03:23:55;;;;;;;11.43;10.43;;;;;;;;;;5114052;28;20382;-56
2021/06/20 03:26:20;;;;;;;12.77;11.77;;;;;;;;;;5099316;28;20024;-54
2021/06/20 03:28:46;;;;;;;13.10;12.00;;;;;;;;;;5105412;28;20023;-58
2021/06/20 03:31:11;;;;;;;13.40;12.30;;;;;;;;;;5109643;28;20073;-57
2021/06/20 03:33:36;;;;;;;13.55;12.35;;;;;;;;;;5111388;28;20338;-57
2021/06/20 03:36:02;;;;;;;13.38;12.27;;;;;;;;;;5112309;28;20039;-57
2021/06/20 03:38:28;;;;;;;13.45;12.25;;;;;;;;;;5102998;28;20364;-56
2021/06/20 03:40:54;;;;;;;13.23;12.23;;;;;;;;;;5108442;28;20023;-56
2021/06/20 03:43:20;;;;;;;13.38;12.05;;;;;;;;;;5111868;27;20019;-57
2021/06/20 03:45:45;;;;;;;13.65;12.55;;;;;;;;;;5113247;28;20027;-56
2021/06/20 03:48:10;;;;;;;13.67;12.43;;;;;;;;;;5100674;28;20035;-58
2021/06/20 03:50:35;;;;;;;13.10;12.10;;;;;;;;;;5105252;28;20273;-57
2021/06/20 03:53:01;;;;;;;13.35;12.25;;;;;;;;;;5111887;28;20648;-57
2021/06/20 03:55:26;;;;;;;12.98;11.77;;;;;;;;;;5108547;28;20889;-57
2021/06/20 03:57:51;;;;;;;12.98;12.00;;;;;;;;;;5101743;28;20019;-55
2021/06/20 04:00:16;;;;;;;12.35;11.30;;;;;;;;;;5100719;28;20463;-54
2021/06/20 04:02:42;;;;;;;12.68;11.57;;;;;;;;;;5101148;28;21489;-56
2021/06/20 04:05:09;;;;;;;12.20;11.07;;;;;;;;;;5113425;28;20012;-57
2021/06/20 04:07:34;;;;;;;12.15;11.15;;;;;;;;;;5113062;28;20351;-58
2021/06/20 04:09:59;;;;;;;10.50;9.55;;;;;;;;;;5101924;28;20078;-57
2021/06/20 04:12:25;;;;;;;11.25;10.27;;;;;;;;;;5089618;28;20016;-56
2021/06/20 04:14:50;;;;;;;10.80;9.98;;;;;;;;;;5111561;28;20493;-56
2021/06/20 04:17:15;;;;;;;10.95;9.85;;;;;;;;;;5100988;28;20016;-56
2021/06/20 04:19:41;;;;;;;11.48;10.48;;;;;;;;;;5111888;28;20542;-57
2021/06/20 04:22:06;;;;;;;11.70;10.77;;;;;;;;;;5092137;28;20097;-57
2021/06/20 04:24:31;;;;;;;10.35;9.55;;;;;;;;;;5108305;28;20026;-55
2021/06/20 04:26:56;;;;;;;11.48;10.45;;;;;;;;;;5093806;28;20548;-58
2021/06/20 04:29:22;;;;;;;11.25;10.35;;;;;;;;;;5093464;28;20027;-57
2021/06/20 04:31:47;;;;;;;11.15;10.18;;;;;;;;;;5101823;28;20026;-57
2021/06/20 04:34:12;;;;;;;10.95;10.05;;;;;;;;;;5097562;28;20020;-57
2021/06/20 04:36:38;;;;;;;11.15;10.00;;;;;;;;;;5094644;28;20463;-56
2021/06/20 04:39:08;;;;;;;10.70;9.60;;;;;;;;;;5095252;28;20032;-58
2021/06/20 04:41:37;;;;;;;11.07;10.13;;;;;;;;;;5109563;28;20055;-58
2021/06/20 04:44:04;;;;;;;10.13;9.05;;;;;;;;;;5111175;28;20124;-56
2021/06/20 04:46:34;;;;;;;10.40;9.60;;;;;;;;;;5111003;28;20027;-56
2021/06/20 04:49:03;;;;;;;10.15;9.35;;;;;;;;;;5108904;28;20077;-57
2021/06/20 04:51:29;;;;;;;10.05;9.18;;;;;;;;;;5093767;28;20032;-57
2021/06/20 04:53:54;;;;;;;9.05;8.45;;;;;;;;;;5107384;28;20024;-56
2021/06/20 04:56:20;;;;;;;9.57;8.88;;;;;;;;;;5096419;28;20032;-57
2021/06/20 04:58:45;;;;;;;9.65;8.82;;;;;;;;;;5107376;28;20024;-57
2021/06/20 05:01:10;;;;;;;9.88;9.07;;;;;;;;;;5102937;28;20072;-57
2021/06/20 05:03:36;;;;;;;9.50;8.70;;;;;;;;;;5111004;28;20043;-58
2021/06/20 05:06:01;;;;;;;9.40;8.60;;;;;;;;;;5108325;28;20099;-57
2021/06/20 05:08:26;;;;;;;10.18;9.32;;;;;;;;;;5112116;28;20019;-58
2021/06/20 05:10:53;;;;;;;10.10;9.20;;;;;;;;;;5108923;28;20418;-57
2021/06/20 05:13:18;;;;;;;10.35;9.65;;;;;;;;;;5106386;28;20107;-57
2021/06/20 05:15:43;;;;;;;9.85;9.00;;;;;;;;;;5105498;28;20557;-58
2021/06/20 05:18:08;;;;;;;10.50;9.60;;;;;;;;;;5101533;28;20434;-57
2021/06/20 05:20:34;;;;;;;10.50;9.60;;;;;;;;;;5104979;28;20420;-57
2021/06/20 05:22:59;;;;;;;9.85;9.05;;;;;;;;;;5103128;28;20032;-57
2021/06/20 05:25:24;;;;;;;10.00;9.20;;;;;;;;;;5111405;28;20019;-57
2021/06/20 05:27:49;;;;;;;9.45;8.75;;;;;;;;;;5111740;28;20270;-58
2021/06/20 05:30:15;;;;;;;9.48;8.68;;;;;;;;;;5101778;28;20051;-55
2021/06/20 05:32:40;;;;;;;9.43;8.70;;;;;;;;;;5107548;28;20051;-57
2021/06/20 05:35:06;;;;;;;8.85;8.05;;;;;;;;;;5113111;28;20091;-57
2021/06/20 05:37:31;;;;;;;9.60;8.80;;;;;;;;;;5115395;28;20034;-57
2021/06/20 05:39:56;;;;;;;8.23;7.53;;;;;;;;;;5112584;28;20031;-57
2021/06/20 05:42:22;;;;;;;7.68;7.05;;;;;;;;;;5108436;28;20375;-55
2021/06/20 05:44:47;;;;;;;9.13;8.23;;;;;;;;;;5104909;28;20068;-57
2021/06/20 05:47:12;;;;;;;9.13;8.32;;;;;;;;;;5113799;28;20016;-57
2021/06/20 05:49:37;;;;;;;8.45;7.70;;;;;;;;;;5111808;28;20020;-57
2021/06/20 05:52:03;;;;;;;8.23;7.53;;;;;;;;;;5112681;28;20043;-57
2021/06/20 05:54:28;;;;;;;8.13;7.53;;;;;;;;;;5111151;28;20740;-56
2021/06/20 05:56:53;;;;;;;8.02;7.43;;;;;;;;;;5115095;28;20028;-57
2021/06/20 05:59:18;;;;;;;8.33;7.50;;;;;;;;;;5114045;28;20050;-57
2021/06/20 06:01:44;;;;;;;8.40;7.80;;;;;;;;;;5109160;28;20322;-56
2021/06/20 06:04:10;;;;;;;8.75;7.97;;;;;;;;;;5102838;28;20585;-57
2021/06/20 06:06:35;;;;;;;8.38;7.68;;;;;;;;;;5108789;28;20526;-57
2021/06/20 06:09:00;;;;;;;9.00;8.00;;;;;;;;;;5113993;28;20034;-56
2021/06/20 06:11:25;;;;;;;8.27;7.67;;;;;;;;;;5092098;28;20281;-56
2021/06/20 06:13:51;;;;;;;8.50;7.70;;;;;;;;;;5097288;28;20289;-55
2021/06/20 06:16:16;;;;;;;8.32;7.53;;;;;;;;;;5101110;28;20019;-57
2021/06/20 06:18:41;;;;;;;7.73;7.07;;;;;;;;;;5113853;28;20519;-57
2021/06/20 06:21:07;;;;;;;7.68;7.07;;;;;;;;;;5105264;28;20621;-55
2021/06/20 06:23:32;;;;;;;7.65;7.03;;;;;;;;;;5105185;28;20028;-55
2021/06/20 06:25:58;;;;;;;8.07;7.43;;;;;;;;;;5105590;28;20056;-57
2021/06/20 06:28:23;;;;;;;9.38;7.00;;;;;;;;;;5096638;28;20020;-55
2021/06/20 06:30:48;;;;;;;7.32;6.63;;;;;;;;;;5091941;28;20529;-56
2021/06/20 06:33:13;;;;;;;6.75;6.28;;;;;;;;;;5094239;28;20020;-57
2021/06/20 06:35:39;;;;;;;7.30;6.80;;;;;;;;;;5102194;28;20030;-57
2021/06/20 06:38:05;;;;;;;7.90;6.60;;;;;;;;;;5096203;28;20250;-57
2021/06/20 06:40:30;;;;;;;7.20;6.70;;;;;;;;;;5106773;28;20228;-57
2021/06/20 06:42:56;;;;;;;7.45;6.85;;;;;;;;;;5099944;28;20020;-57
2021/06/20 06:45:21;;;;;;;7.57;6.97;;;;;;;;;;5094195;28;22050;-57
2021/06/20 06:47:47;;;;;;;7.43;6.85;;;;;;;;;;5099610;28;20024;-56
2021/06/20 06:50:12;;;;;;;7.13;6.45;;;;;;;;;;5093414;28;20408;-57
2021/06/20 06:52:38;;;;;;;6.85;6.25;;;;;;;;;;5110432;28;20409;-55
2021/06/20 06:55:05;;;;;;;7.05;6.50;;;;;;;;;;5096112;28;20032;-56
2021/06/20 06:57:31;;;;;;;7.20;6.65;;;;;;;;;;5101370;28;20063;-56
2021/06/20 06:59:57;;;;;;;6.97;6.47;;;;;;;;;;5095483;28;20438;-55
2021/06/20 07:02:23;;;;;;;7.25;6.75;;;;;;;;;;5093707;28;20044;-57
2021/06/20 07:04:48;;;;;;;6.85;6.35;;;;;;;;;;5095630;28;20027;-57
2021/06/20 07:07:13;;;;;;;7.43;6.82;;;;;;;;;;5098123;28;20027;-56
2021/06/20 07:09:39;;;;;;;7.47;6.78;;;;;;;;;;5097742;28;20035;-56
2021/06/20 07:12:04;;;;;;;7.10;6.50;;;;;;;;;;5094526;28;20031;-58
2021/06/20 07:14:33;;;;;;;6.55;5.95;;;;;;;;;;5112076;28;20027;-57
2021/06/20 07:16:59;;;;;;;7.15;6.50;;;;;;;;;;5095328;28;20117;-58
2021/06/20 07:19:24;;;;;;;6.37;5.80;;;;;;;;;;5093339;28;20483;-56
2021/06/20 07:21:49;;;;;;;6.20;5.80;;;;;;;;;;5098630;28;20653;-58
2021/06/20 07:24:14;;;;;;;6.30;5.80;;;;;;;;;;5093475;28;20338;-55
2021/06/20 07:26:40;;;;;;;6.97;5.88;;;;;;;;;;5099020;28;20348;-58
2021/06/20 07:29:05;;;;;;;6.30;5.80;;;;;;;;;;5108958;28;20062;-58
2021/06/20 07:31:30;;;;;;;6.27;5.77;;;;;;;;;;5101437;28;20031;-57
2021/06/20 07:33:55;;;;;;;5.28;4.78;;;;;;;;;;5104894;28;20752;-55
2021/06/20 07:36:21;;;;;;;5.30;4.80;;;;;;;;;;5113326;28;20019;-58
2021/06/20 07:38:46;;;;;;;6.45;4.80;;;;;;;;;;5110387;28;20016;-55
2021/06/20 07:41:12;;;;;;;5.33;4.27;;;;;;;;;;5095324;28;20485;-57
2021/06/20 07:43:37;;;;;;;6.05;4.68;;;;;;;;;;5093700;28;20659;-58
2021/06/20 07:46:02;;;;;;;5.13;4.13;;;;;;;;;;5102312;28;20023;-57
2021/06/20 07:48:29;;;;;;;5.55;4.55;;;;;;;;;;5112512;27;20106;-57
2021/06/20 07:50:54;;;;;;;4.65;3.72;;;;;;;;;;5098602;28;20054;-58
2021/06/20 07:53:19;;;;;;;5.88;4.40;;;;;;;;;;5101081;28;20047;-56
2021/06/20 07:55:45;;;;;;;6.22;3.90;;;;;;;;;;5092802;28;20304;-58
2021/06/20 07:58:10;;;;;;;8.63;5.15;;;;;;;;;;5092484;28;20458;-57
2021/06/20 08:00:35;;;;;;;6.63;4.30;;;;;;;;;;5095228;28;20043;-58
2021/06/20 08:03:00;;;;;;;4.50;3.80;;;;;;;;;;5098391;28;20028;-57
2021/06/20 08:05:26;;;;;;;7.50;4.32;;;;;;;;;;5101342;28;20520;-56
2021/06/20 08:07:51;;;;;;;5.67;4.20;;;;;;;;;;5094228;28;20378;-58
2021/06/20 08:10:16;;;;;;;7.63;4.50;;;;;;;;;;5096123;28;20265;-58
2021/06/20 08:12:42;;;;;;;7.38;4.38;;;;;;;;;;5090759;28;20354;-57
2021/06/20 08:15:08;;;;;;;6.05;4.10;;;;;;;;;;5102262;28;20019;-57
2021/06/20 08:17:33;;;;;;;8.10;4.78;;;;;;;;;;5092658;28;20016;-58
2021/06/20 08:19:59;;;;;;;7.88;4.55;;;;;;;;;;5095204;28;20055;-58
2021/06/20 08:22:24;;;;;;;7.15;4.28;;;;;;;;;;5095373;28;20022;-56
2021/06/20 08:24:50;;;;;;;10.25;4.03;;;;;;;;;;5098904;28;20378;-55
2021/06/20 08:27:15;;;;;;;11.18;4.53;;;;;;;;;;5094229;28;20008;-58
2021/06/20 08:29:40;;;;;;;8.10;4.20;;;;;;;;;;5103473;28;20036;-58
2021/06/20 08:32:06;;;;;;;9.43;4.40;;;;;;;;;;5097563;28;20047;-56
2021/06/20 08:34:32;;;;;;;10.93;4.35;;;;;;;;;;5092955;28;20310;-57
2021/06/20 08:36:59;;;;;;;6.50;4.32;;;;;;;;;;5093470;28;20020;-57
2021/06/20 08:39:24;;;;;;;12.77;5.15;;;;;;;;;;5103647;28;20022;-54
2021/06/20 08:41:50;;;;;;;11.65;5.05;;;;;;;;;;5093772;28;20387;-55
2021/06/20 08:44:16;;;;;;;9.25;4.30;;;;;;;;;;5102264;28;20016;-56
2021/06/20 08:46:42;;;;;;;11.60;4.28;;;;;;;;;;5096811;28;20050;-57
2021/06/20 08:49:08;;;;;;;13.45;3.88;;;;;;;;;;5092152;28;20482;-57
2021/06/20 08:51:33;;;;;;;15.52;5.35;;;;;;;;;;5098179;28;20027;-57
2021/06/20 08:53:58;;;;;;;13.00;4.45;;;;;;;;;;5096790;28;20047;-56
2021/06/20 08:56:24;;;;;;;9.40;4.33;;;;;;;;;;5102431;28;20024;-56
2021/06/20 08:58:49;;;;;;;10.35;4.53;;;;;;;;;;5093600;28;20012;-55
2021/06/20 09:01:14;;;;;;;13.32;4.30;;;;;;;;;;5089277;28;20047;-57
2021/06/20 09:03:41;;;;;;;11.97;4.50;;;;;;;;;;5094384;28;20012;-57
2021/06/20 09:06:14;;;;;;;10.00;4.20;;;;;;;;;;5092493;28;20319;-57
2021/06/20 09:08:46;;;;;;;13.98;4.70;;;;;;;;;;5092250;28;20041;-57
2021/06/20 09:11:21;;;;;;;14.02;4.28;;;;;;;;;;5103186;28;20027;-56
2021/06/20 09:13:46;;;;;;;12.68;5.03;;;;;;;;;;5110649;28;20126;-57
2021/06/20 09:16:11;;;;;;;14.80;4.87;;;;;;;;;;5100340;28;20491;-57
2021/06/20 09:18:36;;;;;;;15.20;4.20;;;;;;;;;;5114532;28;20790;-56
2021/06/20 09:21:08;;;;;;;13.83;4.80;;;;;;;;;;5108781;28;20016;-56
2021/06/20 09:23:38;;;;;;;10.63;4.35;;;;;;;;;;5096102;28;20341;-56
2021/06/20 09:26:03;;;;;;;13.18;4.68;;;;;;;;;;5096577;28;20042;-57
2021/06/20 09:28:33;;;;;;;13.13;4.53;;;;;;;;;;5098148;28;20479;-56
2021/06/20 09:31:00;;;;;;;15.43;4.45;;;;;;;;;;5102329;28;20024;-56
2021/06/20 09:33:28;;;;;;;11.27;4.30;;;;;;;;;;5097331;28;20035;-58
2021/06/20 09:35:57;;;;;;;10.77;5.32;;;;;;;;;;5099120;28;20027;-59
2021/06/20 09:38:26;;;;;;;13.82;4.82;;;;;;;;;;5102219;28;20016;-56
2021/06/20 09:40:59;;;;;;;16.80;5.28;;;;;;;;;;5100749;28;20016;-57
2021/06/20 09:43:25;;;;;;;10.90;4.63;;;;;;;;;;5098771;28;20016;-57
2021/06/20 09:45:52;;;;;;;11.57;4.63;;;;;;;;;;5096791;28;20040;-56
2021/06/20 09:48:25;;;;;;;16.58;5.13;;;;;;;;;;5103288;28;20020;-57
2021/06/20 09:50:51;;;;;;;14.43;5.65;;;;;;;;;;5097134;28;20076;-58
2021/06/20 09:53:19;;;;;;;15.93;5.38;;;;;;;;;;5097581;28;20412;-57
2021/06/20 09:55:44;;;;;;;15.15;5.20;;;;;;;;;;5095458;28;20762;-58
2021/06/20 09:58:09;;;;;;;15.33;5.97;;;;;;;;;;5096561;28;20024;-57
2021/06/20 10:00:39;;;;;;;12.27;5.00;;;;;;;;;;5109022;28;20218;-58
2021/06/20 10:03:04;;;;;;;15.77;5.10;;;;;;;;;;5099266;28;20345;-56
2021/06/20 10:05:29;;;;;;;15.20;4.72;;;;;;;;;;5114388;28;20476;-58
2021/06/20 10:07:55;;;;;;;16.02;4.80;;;;;;;;;;5113602;28;20495;-57
2021/06/20 10:10:21;;;;;;;15.80;4.80;;;;;;;;;;5112038;28;20428;-59
2021/06/20 10:12:46;;;;;;;17.35;4.70;;;;;;;;;;5109318;28;20069;-58
2021/06/20 10:15:13;;;;;;;11.90;4.72;;;;;;;;;;5103156;28;20024;-58
2021/06/20 10:17:40;;;;;;;16.35;4.85;;;;;;;;;;5094805;28;20016;-57
2021/06/20 10:20:07;;;;;;;11.70;4.13;;;;;;;;;;5110548;28;20035;-58
2021/06/20 10:22:37;;;;;;;13.25;4.50;;;;;;;;;;5101719;28;20020;-59
2021/06/20 10:25:05;;;;;;;14.82;4.10;;;;;;;;;;5104761;28;20402;-57
2021/06/20 10:27:32;;;;;;;12.25;3.83;;;;;;;;;;5098569;28;20024;-54
2021/06/20 10:29:59;;;;;;;16.65;4.18;;;;;;;;;;5113903;28;20391;-58
2021/06/20 10:32:26;;;;;;;11.80;3.58;;;;;;;;;;5109918;28;20019;-56
2021/06/20 10:34:57;;;;;;;11.48;3.70;;;;;;;;;;5113794;28;20032;-56
2021/06/20 10:37:23;;;;;;;14.90;3.92;;;;;;;;;;5114302;28;20047;-55
2021/06/20 10:39:52;;;;;;;19.73;4.53;;;;;;;;;;5111011;28;20027;-57
2021/06/20 10:42:18;;;;;;;12.18;4.32;;;;;;;;;;5091107;28;20023;-56
2021/06/20 10:44:44;;;;;;;11.90;4.22;;;;;;;;;;5107669;28;20023;-58
2021/06/20 10:47:10;;;;;;;13.07;3.70;;;;;;;;;;5112721;28;20383;-57
2021/06/20 10:49:36;;;;;;;10.88;4.00;;;;;;;;;;5103269;28;20036;-56
2021/06/20 10:52:13;;;;;;;10.75;3.83;;;;;;;;;;5100853;27;20026;-56
2021/06/20 10:54:38;;;;;;;11.18;3.50;;;;;;;;;;5109638;28;20360;-56
2021/06/20 10:57:04;;;;;;;10.33;3.93;;;;;;;;;;5110547;28;20026;-57
2021/06/20 10:59:29;;;;;;;10.73;4.13;;;;;;;;;;5113716;28;20030;-55
2021/06/20 11:01:54;;;;;;;15.20;4.57;;;;;;;;;;5109059;28;20031;-56
2021/06/20 11:04:20;;;;;;;14.57;4.93;;;;;;;;;;5113747;28;20094;-57
2021/06/20 11:06:57;;;;;;;12.32;5.50;;;;;;;;;;5113761;28;20351;-56
2021/06/20 11:09:24;;;;;;;14.02;4.05;;;;;;;;;;5113533;28;20054;-55
2021/06/20 11:11:50;;;;;;;9.52;3.92;;;;;;;;;;5111209;28;20069;-56
2021/06/20 11:14:16;;;;;;;9.05;4.18;;;;;;;;;;5112750;28;20019;-56
2021/06/20 11:16:42;;;;;;;10.52;4.30;;;;;;;;;;5113958;28;20084;-56
2021/06/20 11:19:07;;;;;;;9.82;3.80;;;;;;;;;;5109010;28;20425;-57
2021/06/20 11:21:33;;;;;;;13.67;4.17;;;;;;;;;;5102916;28;20012;-56
2021/06/20 11:23:58;;;;;;;13.55;4.90;;;;;;;;;;5112668;28;20315;-56
2021/06/20 11:26:23;;;;;;;13.75;4.65;;;;;;;;;;5099532;28;20024;-55
2021/06/20 11:29:02;;;;;;;12.47;3.60;;;;;;;;;;5107432;28;20545;-56
2021/06/20 11:31:28;;;;;;;14.70;3.72;;;;;;;;;;5105651;28;20803;-56
2021/06/20 11:33:56;;;;;;;11.43;4.30;;;;;;;;;;5103104;28;20056;-57
2021/06/20 11:36:22;;;;;;;13.45;4.00;;;;;;;;;;5102357;28;20140;-56
2021/06/20 11:38:48;;;;;;;11.75;3.85;;;;;;;;;;5096288;28;20494;-57
2021/06/20 11:41:15;;;;;;;12.18;3.42;;;;;;;;;;5104334;28;20008;-56
2021/06/20 11:43:51;;;;;;;12.55;3.75;;;;;;;;;;5112369;28;20016;-58
2021/06/20 11:46:17;;;;;;;15.27;4.10;;;;;;;;;;5100454;28;20068;-56
2021/06/20 11:49:02;;;;;;;14.20;3.70;;;;;;;;;;5113395;28;20083;-56
2021/06/20 11:51:41;;;;;;;9.40;3.30;;;;;;;;;;5097445;28;20423;-57
2021/06/20 11:54:09;;;;;;;11.57;4.05;;;;;;;;;;5108395;28;20471;-56
2021/06/20 11:56:34;;;;;;;11.43;4.28;;;;;;;;;;5104263;28;20019;-57
2021/06/20 11:58:59;;;;;;;12.18;3.28;;;;;;;;;;5100119;28;20016;-57
2021/06/20 12:01:36;;;;;;;15.43;4.05;;;;;;;;;;5105268;28;20051;-57
2021/06/20 12:04:01;;;;;;;13.98;4.30;;;;;;;;;;5102168;28;20103;-56
2021/06/20 12:06:27;;;;;;;12.00;4.13;;;;;;;;;;5102767;28;20047;-57
2021/06/20 12:08:52;;;;;;;15.45;3.80;;;;;;;;;;5109058;28;20016;-57
2021/06/20 12:11:27;;;;;;;14.23;4.13;;;;;;;;;;5109306;28;20020;-57
2021/06/20 12:13:52;;;;;;;11.95;3.78;;;;;;;;;;5102379;28;20289;-57
2021/06/20 12:16:17;;;;;;;12.40;3.40;;;;;;;;;;5105372;28;20027;-55
2021/06/20 12:18:43;;;;;;;9.00;3.93;;;;;;;;;;5109153;28;20022;-55
2021/06/20 12:21:08;;;;;;;10.80;3.17;;;;;;;;;;5107023;28;20012;-55
2021/06/20 12:23:34;;;;;;;9.60;4.00;;;;;;;;;;5093347;28;20024;-55
2021/06/20 12:26:00;;;;;;;10.05;3.38;;;;;;;;;;5108862;28;20424;-55
2021/06/20 12:28:26;;;;;;;13.35;4.18;;;;;;;;;;5112799;28;20027;-54
2021/06/20 12:30:52;;;;;;;10.13;3.17;;;;;;;;;;5097601;28;20273;-56
2021/06/20 12:33:18;;;;;;;11.70;3.92;;;;;;;;;;5112774;28;20024;-55
2021/06/20 12:35:46;;;;;;;12.05;3.83;;;;;;;;;;5110194;28;20060;-55
2021/06/20 12:38:18;;;;;;;17.08;3.72;;;;;;;;;;5112961;28;20019;-55
2021/06/20 12:40:44;;;;;;;11.05;3.75;;;;;;;;;;5098190;28;20020;-54
2021/06/20 12:43:14;;;;;;;10.90;3.70;;;;;;;;;;5092941;28;20062;-55
2021/06/20 12:45:39;;;;;;;9.68;3.83;;;;;;;;;;5108428;28;20080;-54
2021/06/20 12:48:20;;;;;;;9.57;3.30;;;;;;;;;;5102757;28;20024;-54
2021/06/20 12:50:48;;;;;;;12.20;4.20;;;;;;;;;;5105901;28;20039;-55
2021/06/20 12:53:13;;;;;;;9.88;3.08;;;;;;;;;;5114445;28;20081;-57
2021/06/20 12:55:38;;;;;;;9.52;2.65;;;;;;;;;;5100855;28;20435;-56
2021/06/20 12:58:07;;;;;;;12.30;2.58;;;;;;;;;;5102355;28;20011;-56
2021/06/20 13:00:34;;;;;;;10.65;2.67;;;;;;;;;;5111675;28;20054;-53
2021/06/20 13:03:04;;;;;;;9.95;2.78;;;;;;;;;;5099793;28;20024;-56
2021/06/20 13:05:38;;;;;;;8.43;2.75;;;;;;;;;;5102052;28;20012;-56
2021/06/20 13:08:04;;;;;;;8.82;3.10;;;;;;;;;;5111731;28;20356;-57
2021/06/20 13:10:30;;;;;;;11.30;3.60;;;;;;;;;;5100602;27;20196;-57
2021/06/20 13:12:55;;;;;;;6.78;2.83;;;;;;;;;;5107760;28;20502;-57
2021/06/20 13:15:21;;;;;;;8.20;3.42;;;;;;;;;;5115417;28;20020;-55
2021/06/20 13:17:46;;;;;;;7.97;3.65;;;;;;;;;;5105644;28;20026;-55
2021/06/20 13:20:12;;;;;;;9.70;3.35;;;;;;;;;;5113844;28;20039;-56
2021/06/20 13:22:38;;;;;;;10.48;3.80;;;;;;;;;;5113024;28;20011;-55
2021/06/20 13:25:04;;;;;;;9.80;3.70;;;;;;;;;;5115874;28;20379;-55
2021/06/20 13:27:29;;;;;;;9.68;3.47;;;;;;;;;;5108840;28;20028;-57
2021/06/20 13:29:55;;;;;;;7.57;3.65;;;;;;;;;;5097510;28;20024;-56
2021/06/20 13:32:20;;;;;;;10.77;3.90;;;;;;;;;;5110537;28;20043;-56
2021/06/20 13:34:46;;;;;;;7.90;3.50;;;;;;;;;;5115799;28;20019;-53
2021/06/20 13:37:12;;;;;;;7.90;3.40;;;;;;;;;;5116219;28;20019;-56
2021/06/20 13:39:38;;;;;;;9.13;4.07;;;;;;;;;;5113831;28;20021;-55
2021/06/20 13:42:04;;;;;;;10.85;3.65;;;;;;;;;;5103435;28;20039;-57
2021/06/20 13:44:30;;;;;;;7.63;3.10;;;;;;;;;;5114892;28;20065;-55
2021/06/20 13:46:55;;;;;;;11.07;3.88;;;;;;;;;;5112111;28;20371;-55
2021/06/20 13:49:20;;;;;;;6.40;3.25;;;;;;;;;;5113364;28;20027;-57
2021/06/20 13:51:47;;;;;;;8.90;3.65;;;;;;;;;;5106917;28;20039;-56
2021/06/20 13:54:12;;;;;;;9.70;3.97;;;;;;;;;;5115400;28;20453;-56
2021/06/20 13:56:37;;;;;;;8.83;3.67;;;;;;;;;;5115270;28;20053;-55
2021/06/20 13:59:02;;;;;;;7.18;3.33;;;;;;;;;;5115440;28;20047;-55
2021/06/20 14:01:28;;;;;;;5.65;3.08;;;;;;;;;;5108865;28;20051;-55
2021/06/20 14:03:53;;;;;;;8.68;2.95;;;;;;;;;;5114802;28;20050;-54
2021/06/20 14:06:18;;;;;;;8.70;3.40;;;;;;;;;;5109333;28;20031;-56
2021/06/20 14:08:43;;;;;;;8.63;3.40;;;;;;;;;;5095094;28;20315;-54
2021/06/20 14:11:09;;;;;;;10.82;4.00;;;;;;;;;;5097182;28;20265;-55
2021/06/20 14:13:34;;;;;;;7.90;3.30;;;;;;;;;;5115202;28;20075;-53
2021/06/20 14:15:59;;;;;;;6.97;3.77;;;;;;;;;;5105108;28;20107;-54
2021/06/20 14:18:24;;;;;;;8.77;3.60;;;;;;;;;;5099440;28;20441;-56
2021/06/20 14:20:51;;;;;;;6.68;3.88;;;;;;;;;;5110519;28;20699;-57
2021/06/20 14:23:17;;;;;;;6.30;3.22;;;;;;;;;;5094158;28;20034;-56
2021/06/20 14:25:42;;;;;;;7.78;3.33;;;;;;;;;;5104147;28;20019;-56